createdAt,value
2022-11-12T00:01:01.735Z,97.60
2022-11-12T00:03:28.464Z,98.20
2022-11-12T00:08:22.863Z,98.20
2022-11-12T00:10:50.048Z,97.60
2022-11-12T00:13:16.835Z,97.70
2022-11-12T00:15:43.664Z,97.30
2022-11-12T00:18:10.480Z,97.30
2022-11-12T00:20:37.299Z,97.50
2022-11-12T00:25:31.384Z,98.20
2022-11-12T00:28:10.528Z,97.30
2022-11-12T00:30:39.542Z,96.90
2022-11-12T00:33:06.985Z,96.90
2022-11-12T00:35:34.349Z,96.90
2022-11-12T00:38:01.366Z,97.60
2022-11-12T00:40:28.644Z,97.30
2022-11-12T00:42:55.346Z,97.50
2022-11-12T00:45:22.587Z,97.90
2022-11-12T00:50:16.834Z,96.50
2022-11-12T00:52:43.990Z,96.50
2022-11-12T00:55:11.176Z,96.70
2022-11-12T00:57:38.079Z,97.10
2022-11-12T01:00:06.945Z,97.60
2022-11-12T01:02:40.710Z,97.20
2022-11-12T01:05:10.447Z,98.30
2022-11-12T01:07:37.184Z,98.00
2022-11-12T01:10:04.307Z,97.80
2022-11-12T01:12:32.117Z,97.80
2022-11-12T01:14:59.083Z,98.20
2022-11-12T01:17:26.041Z,97.70
2022-11-12T01:22:19.885Z,97.80
2022-11-12T01:24:46.669Z,97.30
2022-11-12T01:29:41.144Z,97.70
2022-11-12T01:32:08.231Z,98.10
2022-11-12T01:44:29.202Z,97.60
2022-11-12T01:47:17.042Z,97.50
2022-11-12T01:49:54.144Z,98.40
2022-11-12T01:52:24.911Z,98.10
2022-11-12T01:54:54.916Z,98.50
2022-11-12T01:57:34.583Z,98.70
2022-11-12T02:00:05.733Z,98.00
2022-11-12T02:02:34.020Z,97.60
2022-11-12T02:05:02.472Z,97.70
2022-11-12T02:07:30.986Z,98.30
2022-11-12T02:10:00.128Z,98.00
2022-11-12T02:12:45.930Z,98.60
2022-11-12T02:17:39.928Z,98.60
2022-11-12T02:20:10.833Z,99.20
2022-11-12T02:25:05.284Z,98.20
2022-11-12T02:27:32.260Z,97.70
2022-11-12T02:39:47.368Z,96.70
2022-11-12T02:44:41.512Z,96.00
2022-11-12T02:49:35.829Z,98.30
2022-11-12T03:09:12.811Z,97.90
2022-11-12T03:11:39.549Z,97.50
2022-11-12T03:14:06.299Z,98.30
2022-11-12T03:16:33.008Z,98.30
2022-11-12T03:18:59.754Z,98.00
2022-11-12T03:21:26.431Z,98.00
2022-11-12T03:28:47.467Z,98.50
2022-11-12T03:33:41.245Z,98.70
2022-11-12T03:36:08.166Z,99.00
2022-11-12T03:38:34.879Z,99.40
2022-11-12T03:41:01.575Z,99.70
2022-11-12T03:45:55.533Z,98.20
2022-11-12T03:55:45.177Z,98.30
2022-11-12T04:08:36.985Z,98.00
2022-11-12T04:11:15.012Z,98.50
2022-11-12T04:13:45.561Z,99.00
2022-11-12T04:16:33.374Z,99.40
2022-11-12T04:19:20.446Z,99.60
2022-11-12T04:24:47.866Z,97.90
2022-11-12T04:27:20.541Z,97.30
2022-11-12T04:30:07.129Z,97.80
2022-11-12T04:32:36.481Z,97.80
2022-11-12T04:35:04.287Z,98.10
2022-11-12T04:37:44.440Z,97.90
2022-11-12T04:40:54.716Z,99.30
2022-11-12T04:43:40.004Z,99.50
2022-11-12T04:46:06.947Z,99.70
2022-11-12T04:48:33.820Z,98.90
2022-11-12T04:51:02.823Z,98.60
2022-11-12T04:53:30.867Z,97.90
2022-11-12T04:55:59.462Z,97.50
2022-11-12T05:03:21.180Z,99.30
2022-11-12T05:10:42.056Z,98.90
2022-11-12T05:13:08.830Z,98.80
2022-11-12T05:23:06.789Z,98.40
2022-11-12T05:25:35.595Z,98.30
2022-11-12T05:30:29.424Z,99.20
2022-11-12T05:42:47.003Z,98.30
2022-11-12T05:50:08.683Z,98.10
2022-11-12T05:55:06.618Z,99.00
2022-11-12T05:57:33.417Z,99.90
2022-11-12T06:22:04.604Z,99.00
2022-11-12T06:29:30.159Z,99.50
2022-11-12T06:34:23.952Z,99.50
2022-11-12T06:36:50.699Z,98.60
2022-11-12T06:39:17.361Z,98.20
2022-11-12T06:56:26.801Z,99.20
2022-11-12T06:58:53.592Z,99.10
2022-11-12T07:03:51.972Z,98.90
2022-11-12T07:06:20.431Z,98.40
2022-11-12T07:08:49.117Z,98.50
2022-11-12T07:11:19.896Z,98.90
2022-11-12T07:13:47.223Z,99.90
2022-11-12T07:16:18.443Z,99.90
2022-11-12T07:18:46.358Z,99.60
2022-11-12T07:21:15.707Z,99.10
2022-11-12T07:26:41.914Z,98.40
2022-11-12T07:32:00.018Z,98.80
2022-11-12T07:36:53.859Z,98.30
2022-11-12T07:44:14.825Z,97.30
2022-11-12T07:54:04.258Z,97.40
2022-11-12T07:56:31.037Z,97.10
2022-11-12T08:01:40.613Z,96.30
2022-11-12T08:04:09.997Z,96.50
2022-11-12T08:06:37.301Z,96.70
2022-11-12T08:09:08.731Z,96.60
2022-11-12T08:14:03.188Z,96.40
2022-11-12T08:16:30.235Z,96.50
2022-11-12T08:21:24.591Z,96.90
2022-11-12T08:23:51.310Z,96.40
2022-11-12T08:26:19.858Z,96.30
2022-11-12T08:28:47.501Z,95.10
2022-11-12T08:31:16.778Z,93.00
2022-11-12T08:33:44.237Z,89.80
2022-11-12T08:36:13.804Z,87.20
2022-11-12T08:38:41.278Z,84.60
2022-11-12T08:41:10.792Z,81.20
2022-11-12T08:43:38.588Z,79.60
2022-11-12T08:46:05.717Z,78.10
2022-11-12T08:48:34.358Z,77.60
2022-11-12T08:51:02.408Z,77.30
2022-11-12T08:53:30.238Z,77.30
2022-11-12T08:55:57.526Z,78.20
2022-11-12T08:58:25.531Z,82.30
2022-11-12T09:00:52.853Z,83.70
2022-11-12T09:03:23.069Z,82.30
2022-11-12T09:05:50.580Z,81.60
2022-11-12T09:08:20.167Z,80.70
2022-11-12T09:10:47.724Z,80.70
2022-11-12T09:18:13.356Z,78.40
2022-11-12T09:20:40.250Z,74.00
2022-11-12T09:23:13.491Z,72.30
2022-11-12T09:25:40.805Z,72.30
2022-11-12T09:28:16.208Z,72.60
2022-11-12T09:30:46.488Z,72.30
2022-11-12T09:33:19.190Z,73.70
2022-11-12T09:35:47.006Z,74.70
2022-11-12T09:38:15.300Z,74.90
2022-11-12T09:40:50.988Z,76.80
2022-11-12T09:43:32.648Z,79.50
2022-11-12T09:49:27.494Z,80.30
2022-11-12T09:52:01.214Z,81.60
2022-11-12T09:54:35.015Z,81.60
2022-11-12T09:57:02.342Z,82.00
2022-11-12T09:59:31.904Z,82.50
2022-11-12T10:01:58.628Z,82.70
2022-11-12T10:04:37.482Z,83.50
2022-11-12T10:07:11.020Z,83.40
2022-11-12T10:10:05.287Z,83.30
2022-11-12T10:12:42.732Z,83.40
2022-11-12T10:15:43.059Z,84.50
2022-11-12T10:18:21.501Z,85.70
2022-11-12T10:21:19.181Z,85.70
2022-11-12T10:23:48.778Z,85.40
2022-11-12T10:26:18.444Z,85.40
2022-11-12T10:28:55.679Z,85.60
2022-11-12T10:31:22.424Z,85.90
2022-11-12T10:33:49.166Z,85.70
2022-11-12T10:36:36.919Z,85.80
2022-11-12T10:39:03.922Z,86.60
2022-11-12T10:41:33.236Z,87.40
2022-11-12T10:44:14.856Z,87.60
2022-11-12T10:46:41.757Z,86.60
2022-11-12T10:49:14.362Z,86.30
2022-11-12T10:51:41.287Z,86.80
2022-11-12T10:54:35.200Z,87.50
2022-11-12T10:57:25.515Z,87.80
2022-11-12T11:00:20.109Z,88.20
2022-11-12T11:02:55.063Z,87.80
2022-11-12T11:05:31.481Z,88.00
2022-11-12T11:07:58.502Z,87.80
2022-11-12T11:10:36.416Z,87.90
2022-11-12T11:13:22.604Z,88.00
2022-11-12T11:16:04.123Z,88.70
2022-11-12T11:18:34.600Z,89.00
2022-11-12T11:21:28.823Z,89.30
2022-11-12T11:24:04.792Z,89.60
2022-11-12T11:26:49.795Z,89.00
2022-11-12T11:29:34.676Z,88.50
2022-11-12T11:32:25.968Z,88.80
2022-11-12T11:35:27.228Z,88.10
2022-11-12T11:37:59.728Z,87.20
2022-11-12T11:40:36.058Z,86.10
2022-11-12T11:43:38.208Z,85.40
2022-11-12T11:46:10.739Z,84.10
2022-11-12T11:48:52.880Z,82.80
2022-11-12T11:51:41.949Z,81.20
2022-11-12T11:54:33.564Z,78.80
2022-11-12T11:57:05.067Z,78.10
2022-11-12T11:59:57.724Z,77.90
2022-11-12T12:02:58.352Z,76.20
2022-11-12T12:05:55.449Z,75.40
2022-11-12T12:08:35.001Z,75.30
2022-11-12T12:11:34.156Z,74.10
2022-11-12T12:14:06.742Z,72.80
2022-11-12T12:16:50.945Z,72.90
2022-11-12T12:19:45.996Z,73.60
2022-11-12T12:22:21.271Z,74.10
2022-11-12T12:24:54.179Z,74.10
2022-11-12T12:27:38.074Z,74.20
2022-11-12T12:30:18.462Z,74.70
2022-11-12T12:32:54.934Z,74.60
2022-11-12T12:35:35.727Z,76.20
2022-11-12T12:38:14.372Z,76.20
2022-11-12T12:40:46.880Z,77.50
2022-11-12T12:43:27.889Z,77.50
2022-11-12T12:45:57.727Z,77.10
2022-11-12T12:48:38.206Z,77.50
2022-11-12T12:51:05.080Z,77.90
2022-11-12T12:53:36.863Z,78.60
2022-11-12T12:56:47.123Z,78.20
2022-11-12T12:59:22.625Z,80.10
2022-11-12T13:02:22.680Z,80.90
2022-11-12T13:04:50.887Z,81.30
2022-11-12T13:07:18.340Z,81.20
2022-11-12T13:09:45.087Z,81.70
2022-11-12T13:12:11.805Z,82.10
2022-11-12T13:14:38.457Z,82.20
2022-11-12T13:17:12.928Z,83.20
2022-11-12T13:19:45.642Z,83.00
2022-11-12T13:22:18.429Z,83.30
2022-11-12T13:25:19.232Z,83.20
2022-11-12T13:30:13.753Z,84.10
2022-11-12T13:32:46.428Z,84.10
2022-11-12T13:35:22.159Z,84.10
2022-11-12T13:37:56.095Z,84.90
2022-11-12T13:40:28.343Z,85.50
2022-11-12T13:43:19.614Z,86.00
2022-11-12T13:45:54.897Z,86.50
2022-11-12T13:48:33.119Z,86.40
2022-11-12T13:51:06.958Z,86.70
2022-11-12T13:53:34.061Z,86.80
2022-11-12T13:56:00.805Z,87.10
2022-11-12T13:58:35.826Z,87.60
2022-11-12T14:01:05.019Z,87.80
2022-11-12T14:03:39.969Z,87.60
2022-11-12T14:06:27.236Z,88.20
2022-11-12T14:09:12.726Z,88.20
2022-11-12T14:11:47.578Z,88.30
2022-11-12T14:14:51.748Z,88.30
2022-11-12T14:19:55.672Z,88.20
2022-11-12T14:22:22.851Z,88.20
2022-11-12T14:25:00.970Z,88.80
2022-11-12T14:27:33.404Z,89.00
2022-11-12T14:30:20.945Z,89.30
2022-11-12T14:32:59.585Z,89.60
2022-11-12T14:35:37.918Z,90.00
2022-11-12T14:38:11.078Z,90.20
2022-11-12T14:40:54.407Z,90.30
2022-11-12T14:43:36.526Z,90.30
2022-11-12T14:46:05.908Z,90.80
2022-11-12T14:48:46.189Z,90.90
2022-11-12T14:51:14.283Z,91.40
2022-11-12T14:53:46.689Z,91.50
2022-11-12T14:56:30.009Z,91.70
2022-11-12T14:58:59.773Z,91.70
2022-11-12T15:02:20.532Z,91.70
2022-11-12T15:04:25.025Z,91.70
2022-11-12T15:06:54.057Z,91.90
2022-11-12T15:09:38.518Z,92.00
2022-11-12T15:12:19.052Z,92.30
2022-11-12T15:14:45.840Z,92.50
2022-11-12T15:17:32.765Z,92.70
2022-11-12T15:20:05.902Z,92.70
2022-11-12T15:22:32.896Z,92.80
2022-11-12T15:25:26.685Z,92.80
2022-11-12T15:27:53.643Z,94.00
2022-11-12T15:30:30.964Z,95.00
2022-11-12T15:33:13.593Z,95.40
2022-11-12T15:43:30.565Z,95.50
2022-11-12T15:45:58.162Z,95.80
2022-11-12T15:48:24.865Z,96.30
2022-11-12T15:50:51.796Z,96.60
2022-11-12T15:53:18.912Z,97.00
2022-11-12T15:55:46.414Z,97.20
2022-11-12T15:58:20.099Z,97.60
2022-11-12T16:00:46.982Z,97.10
2022-11-12T16:03:21.627Z,97.30
2022-11-12T16:05:48.653Z,97.00
2022-11-12T16:08:15.559Z,97.70
2022-11-12T16:10:44.324Z,96.90
2022-11-12T16:13:31.688Z,97.20
2022-11-12T16:15:58.979Z,97.80
2022-11-12T16:18:25.701Z,98.20
2022-11-12T16:20:52.453Z,98.30
2022-11-12T16:23:19.231Z,97.90
2022-11-12T16:25:46.477Z,98.30
2022-11-12T16:28:17.978Z,99.10
2022-11-12T16:30:47.593Z,99.50
2022-11-12T16:33:17.025Z,99.30
2022-11-12T16:38:15.037Z,98.70
2022-11-12T16:40:42.724Z,98.90
2022-11-12T16:43:09.458Z,99.20
2022-11-12T16:45:39.540Z,99.00
2022-11-12T16:48:22.755Z,99.10
2022-11-12T16:50:49.746Z,99.50
2022-11-12T16:53:16.480Z,99.40
2022-11-12T16:58:14.500Z,98.90
2022-11-12T17:00:44.211Z,98.90
2022-11-12T17:03:13.170Z,98.70
2022-11-12T17:08:08.393Z,99.10
2022-11-12T17:22:53.922Z,99.60
2022-11-12T17:30:15.145Z,99.30
2022-11-12T17:32:42.148Z,99.20
2022-11-12T17:37:36.127Z,99.60
2022-11-12T17:40:03.371Z,99.10
2022-11-12T17:47:24.424Z,99.90
2022-11-12T18:11:56.583Z,99.90
2022-11-12T18:16:51.499Z,99.20
2022-11-12T18:19:18.415Z,99.10
2022-11-12T18:24:14.991Z,99.90
2022-11-12T18:26:42.090Z,99.90
2022-11-12T18:36:30.899Z,99.70
2022-11-12T18:41:26.853Z,99.60
2022-11-12T18:43:54.525Z,99.90
2022-11-12T18:46:21.580Z,99.90
2022-11-12T18:48:48.912Z,99.90
2022-11-12T18:51:17.933Z,99.90
2022-11-12T18:53:46.113Z,99.90
2022-11-12T18:56:15.620Z,99.90
2022-11-12T18:58:42.622Z,99.90
2022-11-12T19:01:13.263Z,99.90
2022-11-12T19:03:40.135Z,99.90
2022-11-12T19:06:07.776Z,99.90
2022-11-12T19:08:35.201Z,99.90
2022-11-12T19:11:04.994Z,99.90
2022-11-12T19:13:32.553Z,99.90
2022-11-12T19:16:11.880Z,99.90
2022-11-12T19:18:40.434Z,99.90
2022-11-12T19:21:09.896Z,99.90
2022-11-12T19:23:37.042Z,99.90
2022-11-12T19:26:05.142Z,99.90
2022-11-12T19:28:32.543Z,99.90
2022-11-12T19:31:03.957Z,99.90
2022-11-12T19:38:32.728Z,99.90
2022-11-12T19:41:05.650Z,99.90
2022-11-12T19:43:32.679Z,99.90
2022-11-12T19:50:55.077Z,99.90
2022-11-12T19:53:21.788Z,99.90
2022-11-12T20:12:58.985Z,99.90
2022-11-12T20:27:42.073Z,99.90
2022-11-12T20:32:36.193Z,99.90
2022-11-12T20:40:04.759Z,99.90
2022-11-12T20:47:25.833Z,99.90
2022-11-12T20:54:46.794Z,99.90
2022-11-12T20:57:13.516Z,99.90
2022-11-12T21:02:10.357Z,99.90
2022-11-12T21:24:15.618Z,99.90
2022-11-12T21:36:35.560Z,99.90
2022-11-12T21:39:03.598Z,99.90
2022-11-12T21:44:00.555Z,99.90
2022-11-12T21:46:29.634Z,99.90
2022-11-12T21:48:57.274Z,99.90
2022-11-12T21:51:26.605Z,99.90
2022-11-12T21:53:58.792Z,99.90
2022-11-12T21:56:26.465Z,99.90
2022-11-12T21:58:59.294Z,99.90
2022-11-12T22:01:28.138Z,99.90
2022-11-12T22:03:55.932Z,99.90
2022-11-12T22:06:25.099Z,99.90
2022-11-12T22:08:53.838Z,99.90
2022-11-12T22:16:21.743Z,99.90
2022-11-12T22:21:19.509Z,99.90
2022-11-12T22:23:46.438Z,99.90
2022-11-12T22:26:16.304Z,99.90
2022-11-12T22:28:43.503Z,99.90
2022-11-12T22:31:12.782Z,99.90
2022-11-12T22:33:39.901Z,99.90
2022-11-12T22:36:12.574Z,99.90
2022-11-12T22:38:41.328Z,99.90
2022-11-12T22:41:13.618Z,99.90
2022-11-12T22:43:40.937Z,99.90
2022-11-12T22:46:13.075Z,99.90
2022-11-12T22:48:40.776Z,99.90
2022-11-12T22:53:36.488Z,99.90
2022-11-12T22:58:34.426Z,99.90
2022-11-12T23:03:31.545Z,99.90
2022-11-12T23:05:59.776Z,99.90
2022-11-12T23:08:27.366Z,99.90
2022-11-12T23:13:21.966Z,99.90
2022-11-12T23:15:48.736Z,99.90
2022-11-12T23:30:35.798Z,99.90
2022-11-12T23:33:03.159Z,99.90
2022-11-12T23:35:30.311Z,99.90
2022-11-12T23:47:52.550Z,99.90
2022-11-12T23:52:46.891Z,99.90
